Time;durP1;ratioP1;P1;durP2;ratioP2;P2;SDS_P1;SDS_P2;PMS_P1;PMS_P2;Temp;Humidity;BMP_temperature;BMP_pressure;BME280_temperature;BME280_humidity;BME280_pressure;Samples;Min_cycle;Max_cycle;Signal;HPM_P1;HPM_P2
2023/09/28 00:00:35;;;;;;;4.18;3.88;;;;;;;;;;5070756;28;20248;-94
2023/09/28 00:02:46;;;;;;;3.55;3.33;;;;;;;;;;5073053;28;20201;-94
2023/09/28 00:05:14;;;;;;;3.45;3.10;;;;;;;;;;5070096;28;20223;-93
2023/09/28 00:07:43;;;;;;;3.10;2.90;;;;;;;;;;5070744;28;20257;-93
2023/09/28 00:10:13;;;;;;;2.83;2.63;;;;;;;;;;5071679;28;20233;-91
2023/09/28 00:12:42;;;;;;;3.58;3.28;;;;;;;;;;5070649;28;20237;-92
2023/09/28 00:15:11;;;;;;;3.67;3.47;;;;;;;;;;5070127;28;20208;-93
2023/09/28 00:17:38;;;;;;;3.38;3.08;;;;;;;;;;5070378;28;20268;-93
2023/09/28 00:20:09;;;;;;;4.15;3.63;;;;;;;;;;5070593;28;20232;-93
2023/09/28 00:22:37;;;;;;;3.60;3.30;;;;;;;;;;5072546;28;20269;-93
2023/09/28 00:25:10;;;;;;;4.47;4.13;;;;;;;;;;5070708;28;20236;-92
2023/09/28 00:27:37;;;;;;;5.22;4.55;;;;;;;;;;5068955;28;20210;-92
2023/09/28 00:30:09;;;;;;;5.05;4.53;;;;;;;;;;5070476;28;20228;-93
2023/09/28 00:32:37;;;;;;;4.40;4.00;;;;;;;;;;5071550;28;20416;-93
2023/09/28 00:35:04;;;;;;;4.35;4.05;;;;;;;;;;5072258;28;20213;-93
2023/09/28 00:37:32;;;;;;;3.65;3.35;;;;;;;;;;5071359;28;20213;-92
2023/09/28 00:39:59;;;;;;;3.03;2.67;;;;;;;;;;5064334;28;20297;-95
2023/09/28 00:42:29;;;;;;;2.90;2.70;;;;;;;;;;5071396;28;20229;-91
2023/09/28 00:44:55;;;;;;;2.80;2.60;;;;;;;;;;5073282;28;20198;-92
2023/09/28 00:47:23;;;;;;;3.30;3.03;;;;;;;;;;5072259;28;20212;-92
2023/09/28 00:49:51;;;;;;;2.55;2.35;;;;;;;;;;5073206;28;20210;-92
2023/09/28 00:52:19;;;;;;;2.78;2.58;;;;;;;;;;5075099;28;20244;-92
2023/09/28 00:54:47;;;;;;;3.53;3.20;;;;;;;;;;5069639;28;20205;-91
2023/09/28 00:57:15;;;;;;;3.35;3.10;;;;;;;;;;5071260;28;20273;-92
2023/09/28 00:59:43;;;;;;;3.40;3.10;;;;;;;;;;5072019;28;20218;-91
2023/09/28 01:02:11;;;;;;;3.70;3.03;;;;;;;;;;5071569;28;20211;-92
2023/09/28 01:04:37;;;;;;;4.75;4.35;;;;;;;;;;5070860;28;20201;-92
2023/09/28 01:07:06;;;;;;;5.43;4.78;;;;;;;;;;5067425;28;20245;-92
2023/09/28 01:09:33;;;;;;;4.38;4.03;;;;;;;;;;5067063;28;20268;-93
2023/09/28 01:12:02;;;;;;;3.83;3.45;;;;;;;;;;5051825;28;20248;-92
2023/09/28 01:14:29;;;;;;;3.60;3.30;;;;;;;;;;5053239;28;20190;-91
2023/09/28 01:16:59;;;;;;;4.18;3.70;;;;;;;;;;5055343;28;20205;-93
2023/09/28 01:19:26;;;;;;;3.80;3.50;;;;;;;;;;5057603;28;20214;-91
2023/09/28 01:21:56;;;;;;;3.95;3.65;;;;;;;;;;5057502;28;20206;-91
2023/09/28 01:24:24;;;;;;;5.00;4.60;;;;;;;;;;5053758;28;20194;-92
2023/09/28 01:26:52;;;;;;;4.30;3.58;;;;;;;;;;5051205;28;20246;-92
2023/09/28 01:29:18;;;;;;;4.85;4.45;;;;;;;;;;5051597;28;20234;-93
2023/09/28 01:31:46;;;;;;;4.75;4.25;;;;;;;;;;5052314;28;20198;-92
2023/09/28 01:34:12;;;;;;;5.07;4.60;;;;;;;;;;5051697;28;20222;-92
2023/09/28 01:36:40;;;;;;;4.65;4.25;;;;;;;;;;5052121;28;20206;-92
2023/09/28 01:39:07;;;;;;;5.10;4.60;;;;;;;;;;5070830;28;20225;-92
2023/09/28 01:41:37;;;;;;;4.88;4.43;;;;;;;;;;5070886;28;20201;-93
2023/09/28 01:44:03;;;;;;;5.13;4.65;;;;;;;;;;5069969;28;20265;-92
2023/09/28 01:46:31;;;;;;;4.50;4.10;;;;;;;;;;5069364;28;20222;-92
2023/09/28 01:48:58;;;;;;;6.68;6.07;;;;;;;;;;5070633;28;20577;-92
2023/09/28 01:51:25;;;;;;;5.07;4.30;;;;;;;;;;5070313;28;20208;-92
2023/09/28 01:53:52;;;;;;;6.85;5.65;;;;;;;;;;5071832;28;20220;-90
2023/09/28 01:56:21;;;;;;;6.82;5.35;;;;;;;;;;5078043;28;20212;-90
2023/09/28 01:58:49;;;;;;;5.82;5.22;;;;;;;;;;5077446;28;20225;-89
2023/09/28 02:01:27;;;;;;;5.43;4.70;;;;;;;;;;5077868;28;20190;-91
2023/09/28 02:03:53;;;;;;;5.47;5.00;;;;;;;;;;5073166;28;20224;-92
2023/09/28 02:06:21;;;;;;;5.57;5.03;;;;;;;;;;5069567;28;20269;-92
2023/09/28 02:08:47;;;;;;;6.63;4.78;;;;;;;;;;5074315;28;20209;-92
2023/09/28 02:11:15;;;;;;;4.22;3.85;;;;;;;;;;5077623;28;20190;-91
2023/09/28 02:13:42;;;;;;;4.30;3.78;;;;;;;;;;5077599;28;20215;-90
2023/09/28 02:16:14;;;;;;;3.70;3.40;;;;;;;;;;5077737;28;20177;-90
2023/09/28 02:18:42;;;;;;;4.55;4.15;;;;;;;;;;5077494;28;20212;-90
2023/09/28 02:21:15;;;;;;;4.78;4.38;;;;;;;;;;5077552;28;20192;-91
2023/09/28 02:23:43;;;;;;;4.55;4.15;;;;;;;;;;5076405;28;20202;-92
2023/09/28 02:26:10;;;;;;;4.93;4.43;;;;;;;;;;5076922;28;20208;-91
2023/09/28 02:28:37;;;;;;;5.15;4.68;;;;;;;;;;5076124;28;20201;-93
2023/09/28 02:31:06;;;;;;;5.10;4.60;;;;;;;;;;5076830;28;20204;-93
2023/09/28 02:33:35;;;;;;;5.43;5.00;;;;;;;;;;5075631;28;20221;-93
2023/09/28 02:36:02;;;;;;;4.93;4.53;;;;;;;;;;5075034;28;20202;-91
2023/09/28 02:38:30;;;;;;;4.45;4.05;;;;;;;;;;5067611;28;20215;-92
2023/09/28 02:40:57;;;;;;;5.10;4.20;;;;;;;;;;5074470;28;20205;-91
2023/09/28 02:43:24;;;;;;;4.70;4.30;;;;;;;;;;5073144;28;20223;-93
2023/09/28 02:45:51;;;;;;;4.68;4.38;;;;;;;;;;5073551;28;20217;-92
2023/09/28 02:48:19;;;;;;;5.20;4.72;;;;;;;;;;5074552;28;20206;-91
2023/09/28 02:50:48;;;;;;;3.40;3.13;;;;;;;;;;5075314;28;20194;-93
2023/09/28 02:53:15;;;;;;;4.35;3.95;;;;;;;;;;5074610;28;20222;-93
2023/09/28 02:55:42;;;;;;;4.43;4.03;;;;;;;;;;5073793;28;20205;-91
2023/09/28 02:58:10;;;;;;;3.20;2.90;;;;;;;;;;5075816;28;20255;-91
2023/09/28 03:00:36;;;;;;;3.45;3.05;;;;;;;;;;5075820;28;20285;-92
2023/09/28 03:03:05;;;;;;;3.67;3.38;;;;;;;;;;5077440;28;20212;-91
2023/09/28 03:05:33;;;;;;;5.10;4.65;;;;;;;;;;5078609;28;20240;-90
2023/09/28 03:08:04;;;;;;;3.55;3.35;;;;;;;;;;5076402;28;20201;-91
2023/09/28 03:10:31;;;;;;;5.40;4.13;;;;;;;;;;5074478;28;20229;-93
2023/09/28 03:12:59;;;;;;;5.45;4.60;;;;;;;;;;5074825;28;20193;-91
2023/09/28 03:15:25;;;;;;;6.55;5.95;;;;;;;;;;5074614;28;20202;-92
2023/09/28 03:17:55;;;;;;;6.50;5.40;;;;;;;;;;5072356;28;20201;-91
2023/09/28 03:20:22;;;;;;;5.80;4.70;;;;;;;;;;5075306;28;20213;-92
2023/09/28 03:22:50;;;;;;;3.30;3.10;;;;;;;;;;5076102;28;20198;-92
2023/09/28 03:25:21;;;;;;;3.13;2.92;;;;;;;;;;5075728;28;20225;-91
2023/09/28 03:27:50;;;;;;;3.15;2.95;;;;;;;;;;5076047;28;20198;-91
2023/09/28 03:30:18;;;;;;;3.95;3.65;;;;;;;;;;5074226;28;20260;-93
2023/09/28 03:32:47;;;;;;;3.95;3.65;;;;;;;;;;5074307;28;20217;-93
2023/09/28 03:35:14;;;;;;;4.53;3.80;;;;;;;;;;5075935;28;20290;-92
2023/09/28 03:37:43;;;;;;;3.17;2.97;;;;;;;;;;5074326;28;20265;-92
2023/09/28 03:40:12;;;;;;;2.90;2.70;;;;;;;;;;5071151;28;20202;-92
2023/09/28 03:42:41;;;;;;;4.45;4.05;;;;;;;;;;5054936;28;20206;-93
2023/09/28 03:45:11;;;;;;;5.88;4.57;;;;;;;;;;5052154;28;20202;-93
2023/09/28 03:47:39;;;;;;;4.18;3.88;;;;;;;;;;5053480;28;20210;-92
2023/09/28 03:50:10;;;;;;;5.82;5.30;;;;;;;;;;5054661;28;20252;-92
2023/09/28 03:52:38;;;;;;;12.25;5.82;;;;;;;;;;5051802;28;20212;-92
2023/09/28 03:55:09;;;;;;;4.93;4.57;;;;;;;;;;5050553;28;20292;-91
2023/09/28 03:57:36;;;;;;;4.93;4.00;;;;;;;;;;5051465;28;20233;-91
2023/09/28 04:00:08;;;;;;;4.00;3.70;;;;;;;;;;5051489;28;20352;-91
2023/09/28 04:02:38;;;;;;;4.68;4.28;;;;;;;;;;5051910;28;20204;-93
2023/09/28 04:05:07;;;;;;;5.07;4.57;;;;;;;;;;5050623;28;20272;-91
2023/09/28 04:07:35;;;;;;;3.45;3.20;;;;;;;;;;5052004;28;20202;-92
2023/09/28 04:10:03;;;;;;;5.63;5.15;;;;;;;;;;5054155;28;20312;-91
2023/09/28 04:12:31;;;;;;;5.65;4.80;;;;;;;;;;5052904;28;20206;-91
2023/09/28 04:14:58;;;;;;;4.30;4.00;;;;;;;;;;5054029;28;20285;-92
2023/09/28 04:17:27;;;;;;;5.00;4.60;;;;;;;;;;5054235;28;20240;-92
2023/09/28 04:19:55;;;;;;;5.75;5.25;;;;;;;;;;5052504;28;20293;-91
2023/09/28 04:22:23;;;;;;;5.18;4.78;;;;;;;;;;5052308;28;20273;-92
2023/09/28 04:24:50;;;;;;;4.38;4.07;;;;;;;;;;5060917;28;20209;-91
2023/09/28 04:27:18;;;;;;;3.78;3.47;;;;;;;;;;5063531;28;20217;-91
2023/09/28 04:29:46;;;;;;;3.22;3.03;;;;;;;;;;5064870;28;20539;-92
2023/09/28 04:32:14;;;;;;;3.53;3.25;;;;;;;;;;5064259;28;20194;-90
2023/09/28 04:34:43;;;;;;;5.05;4.65;;;;;;;;;;5063964;28;20237;-90
2023/09/28 04:37:12;;;;;;;5.55;5.05;;;;;;;;;;5055775;28;20270;-90
2023/09/28 04:39:39;;;;;;;5.82;5.22;;;;;;;;;;5055159;28;20222;-91
2023/09/28 04:42:07;;;;;;;4.60;4.28;;;;;;;;;;5054857;28;20233;-92
2023/09/28 04:44:34;;;;;;;3.85;3.55;;;;;;;;;;5051188;28;20245;-91
2023/09/28 04:47:02;;;;;;;5.15;4.75;;;;;;;;;;5050331;28;20221;-91
2023/09/28 04:49:30;;;;;;;5.20;4.70;;;;;;;;;;5048828;28;20241;-91
2023/09/28 04:51:59;;;;;;;6.70;5.10;;;;;;;;;;5047995;28;20229;-92
2023/09/28 04:54:26;;;;;;;3.83;3.53;;;;;;;;;;5045229;28;20225;-91
2023/09/28 04:56:54;;;;;;;3.67;3.38;;;;;;;;;;5046857;28;20209;-92
2023/09/28 04:59:22;;;;;;;3.55;3.33;;;;;;;;;;5049943;28;20236;-93
2023/09/28 05:01:49;;;;;;;5.63;5.03;;;;;;;;;;5046958;28;20206;-92
2023/09/28 05:04:17;;;;;;;6.25;5.65;;;;;;;;;;5048617;28;20589;-92
2023/09/28 05:06:44;;;;;;;6.00;5.40;;;;;;;;;;5055234;28;20336;-92
2023/09/28 05:09:14;;;;;;;6.35;5.75;;;;;;;;;;5051050;28;20229;-92
2023/09/28 05:11:42;;;;;;;5.45;4.95;;;;;;;;;;5052691;28;20236;-93
2023/09/28 05:14:10;;;;;;;4.90;4.50;;;;;;;;;;5054458;28;20282;-91
2023/09/28 05:16:37;;;;;;;5.93;5.38;;;;;;;;;;5051969;28;20285;-91
2023/09/28 05:19:05;;;;;;;5.70;5.13;;;;;;;;;;5051509;28;20245;-93
2023/09/28 05:21:33;;;;;;;5.72;5.22;;;;;;;;;;5050853;28;20206;-91
2023/09/28 05:24:01;;;;;;;4.75;4.35;;;;;;;;;;5053032;28;20244;-91
2023/09/28 05:26:30;;;;;;;4.45;4.05;;;;;;;;;;5053669;28;20710;-92
2023/09/28 05:28:58;;;;;;;3.85;3.55;;;;;;;;;;5052654;28;20248;-93
2023/09/28 05:31:25;;;;;;;6.45;4.93;;;;;;;;;;5046041;28;20213;-92
2023/09/28 05:33:53;;;;;;;5.68;5.10;;;;;;;;;;5049534;28;20211;-92
2023/09/28 05:36:21;;;;;;;4.85;4.40;;;;;;;;;;5046194;28;20222;-93
2023/09/28 05:38:48;;;;;;;6.82;5.45;;;;;;;;;;5054063;28;20293;-92
2023/09/28 05:41:16;;;;;;;6.20;5.60;;;;;;;;;;5052614;28;20225;-91
2023/09/28 05:43:45;;;;;;;6.43;5.75;;;;;;;;;;5051139;28;20241;-92
2023/09/28 05:46:13;;;;;;;6.05;5.53;;;;;;;;;;5046668;28;20218;-93
2023/09/28 05:48:41;;;;;;;4.97;4.57;;;;;;;;;;5048839;28;20226;-92
2023/09/28 05:51:08;;;;;;;5.07;4.22;;;;;;;;;;5070552;28;20214;-92
2023/09/28 05:53:36;;;;;;;7.05;5.38;;;;;;;;;;5073594;28;20260;-93
2023/09/28 05:56:05;;;;;;;5.40;4.93;;;;;;;;;;5073161;28;20225;-93
2023/09/28 05:58:33;;;;;;;6.65;5.97;;;;;;;;;;5076866;28;20221;-92
2023/09/28 06:01:07;;;;;;;4.55;4.15;;;;;;;;;;5077483;28;20197;-89
2023/09/28 06:03:36;;;;;;;3.53;3.30;;;;;;;;;;5077851;28;20189;-93
2023/09/28 06:06:15;;;;;;;4.25;3.95;;;;;;;;;;5076980;28;20203;-90
2023/09/28 06:08:43;;;;;;;4.03;3.72;;;;;;;;;;5075153;28;20248;-91
2023/09/28 06:11:15;;;;;;;5.22;4.72;;;;;;;;;;5076905;28;20209;-91
2023/09/28 06:13:43;;;;;;;5.75;4.85;;;;;;;;;;5076907;28;20401;-91
2023/09/28 06:16:14;;;;;;;5.35;3.90;;;;;;;;;;5076616;28;20288;-91
2023/09/28 06:18:44;;;;;;;3.90;3.60;;;;;;;;;;5075959;28;20229;-91
2023/09/28 06:21:12;;;;;;;3.53;3.25;;;;;;;;;;5073981;28;20221;-91
2023/09/28 06:23:40;;;;;;;3.70;3.40;;;;;;;;;;5068555;28;20205;-93
2023/09/28 06:26:07;;;;;;;2.65;2.47;;;;;;;;;;5072123;28;20249;-92
2023/09/28 06:28:35;;;;;;;3.90;3.60;;;;;;;;;;5071618;28;20209;-91
2023/09/28 06:31:03;;;;;;;4.40;3.97;;;;;;;;;;5077462;28;20269;-91
2023/09/28 06:33:32;;;;;;;5.10;4.65;;;;;;;;;;5077623;28;20232;-91
2023/09/28 06:36:00;;;;;;;4.25;3.95;;;;;;;;;;5077307;28;20221;-91
2023/09/28 06:38:27;;;;;;;5.05;4.38;;;;;;;;;;5071459;28;20228;-93
2023/09/28 06:40:55;;;;;;;3.42;3.17;;;;;;;;;;5074453;28;20214;-92
2023/09/28 06:43:22;;;;;;;3.00;2.80;;;;;;;;;;5068474;28;20202;-92
2023/09/28 06:45:50;;;;;;;3.80;3.45;;;;;;;;;;5068479;28;20204;-92
2023/09/28 06:48:18;;;;;;;3.92;3.58;;;;;;;;;;5069788;28;20217;-92
2023/09/28 06:50:48;;;;;;;3.50;3.20;;;;;;;;;;5070016;28;20236;-92
2023/09/28 06:53:16;;;;;;;3.30;3.10;;;;;;;;;;5069955;28;20230;-93
2023/09/28 06:55:44;;;;;;;4.25;3.85;;;;;;;;;;5075183;28;20341;-91
2023/09/28 06:58:14;;;;;;;3.22;3.03;;;;;;;;;;5076914;28;20212;-93
2023/09/28 07:00:42;;;;;;;3.63;3.13;;;;;;;;;;5077195;28;20240;-92
2023/09/28 07:03:09;;;;;;;2.75;2.42;;;;;;;;;;5077144;28;20189;-92
2023/09/28 07:05:38;;;;;;;5.00;3.10;;;;;;;;;;5077025;28;20177;-92
2023/09/28 07:08:07;;;;;;;2.47;2.30;;;;;;;;;;5076561;28;20253;-92
2023/09/28 07:10:36;;;;;;;2.70;2.42;;;;;;;;;;5076358;28;20206;-92
2023/09/28 07:13:05;;;;;;;2.83;2.63;;;;;;;;;;5080372;28;20185;-91
2023/09/28 07:15:33;;;;;;;3.03;2.83;;;;;;;;;;5080793;28;20250;-93
2023/09/28 07:18:01;;;;;;;4.07;3.28;;;;;;;;;;5080988;28;20190;-93
2023/09/28 07:20:29;;;;;;;2.88;2.67;;;;;;;;;;5080505;28;20300;-91
2023/09/28 07:22:57;;;;;;;3.70;3.40;;;;;;;;;;5080732;28;20220;-93
2023/09/28 07:25:26;;;;;;;3.55;3.25;;;;;;;;;;5080685;28;20200;-92
2023/09/28 07:27:54;;;;;;;10.82;4.32;;;;;;;;;;5080397;28;20178;-92
2023/09/28 07:30:22;;;;;;;4.05;3.75;;;;;;;;;;5080324;28;20213;-93
2023/09/28 07:32:51;;;;;;;3.38;3.08;;;;;;;;;;5080397;28;20185;-92
2023/09/28 07:35:19;;;;;;;3.58;3.30;;;;;;;;;;5079729;28;20192;-91
2023/09/28 07:37:47;;;;;;;5.43;4.97;;;;;;;;;;5078552;28;20281;-93
2023/09/28 07:40:17;;;;;;;4.93;4.50;;;;;;;;;;5077810;28;20214;-94
2023/09/28 07:42:46;;;;;;;4.78;4.38;;;;;;;;;;5073251;28;20213;-92
2023/09/28 07:45:15;;;;;;;6.63;5.50;;;;;;;;;;5072981;28;20224;-93
2023/09/28 07:47:42;;;;;;;6.10;5.45;;;;;;;;;;5074125;28;20211;-94
2023/09/28 07:50:14;;;;;;;7.05;6.43;;;;;;;;;;5076464;28;20707;-93
2023/09/28 07:52:42;;;;;;;5.80;5.30;;;;;;;;;;5076792;28;20236;-91
2023/09/28 07:55:10;;;;;;;7.22;6.53;;;;;;;;;;5073642;28;20216;-94
2023/09/28 07:57:38;;;;;;;6.50;5.90;;;;;;;;;;5071915;28;20233;-94
2023/09/28 08:00:11;;;;;;;6.05;5.47;;;;;;;;;;5071796;28;20222;-93
2023/09/28 08:02:40;;;;;;;7.07;6.45;;;;;;;;;;5067432;28;20198;-93
2023/09/28 08:05:08;;;;;;;5.35;4.95;;;;;;;;;;5067976;28;20197;-94
2023/09/28 08:07:36;;;;;;;3.83;3.53;;;;;;;;;;5073385;28;20217;-92
2023/09/28 08:10:04;;;;;;;2.97;2.78;;;;;;;;;;5071402;28;20233;-93
2023/09/28 08:12:31;;;;;;;3.88;3.45;;;;;;;;;;5058679;28;20243;-92
2023/09/28 08:14:59;;;;;;;6.32;4.50;;;;;;;;;;5056650;28;20194;-93
2023/09/28 08:17:27;;;;;;;4.40;4.00;;;;;;;;;;5059179;28;20229;-92
2023/09/28 08:19:56;;;;;;;3.20;3.00;;;;;;;;;;5056683;28;20237;-91
2023/09/28 08:22:24;;;;;;;4.20;3.80;;;;;;;;;;5054977;28;20209;-94
2023/09/28 08:24:52;;;;;;;4.68;4.28;;;;;;;;;;5055560;28;20194;-92
2023/09/28 08:27:19;;;;;;;5.97;5.53;;;;;;;;;;5057385;28;20203;-94
2023/09/28 08:29:47;;;;;;;5.28;4.78;;;;;;;;;;5055102;28;20304;-92
2023/09/28 08:32:15;;;;;;;4.07;3.78;;;;;;;;;;5054990;28;20221;-94
2023/09/28 08:34:44;;;;;;;4.35;3.95;;;;;;;;;;5056705;28;20191;-93
2023/09/28 08:37:12;;;;;;;6.00;5.40;;;;;;;;;;5057426;28;20234;-92
2023/09/28 08:39:39;;;;;;;5.03;4.15;;;;;;;;;;5068703;28;20241;-93
2023/09/28 08:42:13;;;;;;;3.38;3.17;;;;;;;;;;5075775;28;20210;-92
2023/09/28 08:44:42;;;;;;;4.30;3.90;;;;;;;;;;5077346;28;20182;-92
2023/09/28 08:47:17;;;;;;;4.05;3.75;;;;;;;;;;5077687;28;20202;-94
2023/09/28 08:49:47;;;;;;;3.13;2.92;;;;;;;;;;5078032;28;20209;-91
2023/09/28 08:52:16;;;;;;;4.93;4.53;;;;;;;;;;5078044;28;20189;-93
2023/09/28 08:54:43;;;;;;;3.70;3.40;;;;;;;;;;5076020;28;20194;-92
2023/09/28 08:57:12;;;;;;;6.05;5.13;;;;;;;;;;5075493;28;20413;-93
2023/09/28 08:59:41;;;;;;;4.22;3.92;;;;;;;;;;5075632;28;20218;-92
2023/09/28 09:02:09;;;;;;;4.35;3.95;;;;;;;;;;5071738;28;20205;-93
2023/09/28 09:04:38;;;;;;;4.35;4.05;;;;;;;;;;5071896;28;20177;-92
2023/09/28 09:07:07;;;;;;;4.95;4.55;;;;;;;;;;5072027;28;20209;-93
2023/09/28 09:09:37;;;;;;;3.33;3.03;;;;;;;;;;5069879;28;20229;-94
2023/09/28 09:12:10;;;;;;;3.33;3.13;;;;;;;;;;5063250;28;20271;-91
2023/09/28 09:14:37;;;;;;;3.78;3.30;;;;;;;;;;5061359;28;20216;-92
2023/09/28 09:17:06;;;;;;;4.60;3.67;;;;;;;;;;5062671;28;20633;-91
2023/09/28 09:19:34;;;;;;;4.93;4.43;;;;;;;;;;5056881;28;20224;-91
2023/09/28 09:22:04;;;;;;;5.22;4.82;;;;;;;;;;5054655;28;20289;-91
2023/09/28 09:24:33;;;;;;;4.20;3.90;;;;;;;;;;5055866;28;20209;-91
2023/09/28 09:27:01;;;;;;;4.20;3.78;;;;;;;;;;5055934;28;20284;-91
2023/09/28 09:29:29;;;;;;;3.92;3.45;;;;;;;;;;5055501;28;20285;-91
2023/09/28 09:31:56;;;;;;;4.55;4.18;;;;;;;;;;5056282;28;20236;-92
2023/09/28 09:34:25;;;;;;;5.47;4.97;;;;;;;;;;5054480;28;20713;-91
2023/09/28 09:36:57;;;;;;;4.45;4.05;;;;;;;;;;5056519;28;20230;-92
2023/09/28 09:39:27;;;;;;;4.65;4.25;;;;;;;;;;5056476;28;20217;-91
2023/09/28 09:41:57;;;;;;;4.22;3.83;;;;;;;;;;5056548;28;20244;-91
2023/09/28 09:44:27;;;;;;;4.15;3.83;;;;;;;;;;5056683;28;20205;-92
2023/09/28 09:46:56;;;;;;;4.15;3.85;;;;;;;;;;5056005;28;20284;-91
2023/09/28 09:49:24;;;;;;;4.85;4.50;;;;;;;;;;5057565;28;20301;-91
2023/09/28 09:51:52;;;;;;;5.50;4.65;;;;;;;;;;5056676;28;20267;-91
2023/09/28 09:54:22;;;;;;;4.53;4.10;;;;;;;;;;5056004;28;20211;-91
2023/09/28 09:56:51;;;;;;;5.20;4.80;;;;;;;;;;5067902;28;20177;-91
2023/09/28 09:59:24;;;;;;;4.60;4.07;;;;;;;;;;5061586;28;20758;-91
2023/09/28 10:01:53;;;;;;;5.75;4.45;;;;;;;;;;5059461;28;20274;-91
2023/09/28 10:04:24;;;;;;;4.50;4.10;;;;;;;;;;5058446;28;20288;-91
2023/09/28 10:06:56;;;;;;;4.50;4.20;;;;;;;;;;5055439;28;20213;-92
2023/09/28 10:09:24;;;;;;;5.00;4.60;;;;;;;;;;5050988;28;20221;-91
2023/09/28 10:11:52;;;;;;;4.22;3.92;;;;;;;;;;5055576;28;20197;-91
2023/09/28 10:14:21;;;;;;;4.45;3.53;;;;;;;;;;5056123;28;20289;-92
2023/09/28 10:16:50;;;;;;;5.75;5.25;;;;;;;;;;5056035;28;20284;-91
2023/09/28 10:19:21;;;;;;;5.38;4.05;;;;;;;;;;5055753;28;20249;-91
2023/09/28 10:21:51;;;;;;;4.85;4.50;;;;;;;;;;5056336;28;20288;-92
2023/09/28 10:24:20;;;;;;;4.13;3.78;;;;;;;;;;5056743;28;20201;-91
2023/09/28 10:26:51;;;;;;;3.45;3.25;;;;;;;;;;5057443;28;20209;-92
2023/09/28 10:29:23;;;;;;;4.63;4.18;;;;;;;;;;5056794;28;20237;-92
2023/09/28 10:31:54;;;;;;;4.43;4.00;;;;;;;;;;5058136;28;20288;-91
2023/09/28 10:34:23;;;;;;;3.60;3.30;;;;;;;;;;5057659;28;20208;-92
2023/09/28 10:37:21;;;;;;;4.25;3.85;;;;;;;;;;5057346;28;20751;-92
2023/09/28 10:39:57;;;;;;;3.45;3.20;;;;;;;;;;5057657;28;20264;-92
2023/09/28 10:42:26;;;;;;;4.95;3.45;;;;;;;;;;5056828;28;20694;-91
2023/09/28 10:44:57;;;;;;;4.10;3.80;;;;;;;;;;5058545;28;20201;-91
2023/09/28 10:47:25;;;;;;;4.85;4.20;;;;;;;;;;5060425;28;20221;-92
2023/09/28 10:50:00;;;;;;;4.10;3.67;;;;;;;;;;5060625;28;20306;-91
2023/09/28 10:52:28;;;;;;;4.63;4.20;;;;;;;;;;5059142;28;20268;-92
2023/09/28 10:54:56;;;;;;;5.00;3.85;;;;;;;;;;5058857;28;20197;-92
2023/09/28 10:57:30;;;;;;;4.05;3.65;;;;;;;;;;5059736;28;20209;-91
2023/09/28 11:00:02;;;;;;;5.05;4.65;;;;;;;;;;5058626;28;20221;-93
2023/09/28 11:02:35;;;;;;;4.60;4.20;;;;;;;;;;5059423;28;20197;-92
2023/09/28 11:05:03;;;;;;;3.97;3.67;;;;;;;;;;5076086;28;20205;-89
2023/09/28 11:07:30;;;;;;;4.45;4.05;;;;;;;;;;5080846;28;20190;-89
2023/09/28 11:09:58;;;;;;;3.90;3.58;;;;;;;;;;5080606;28;20213;-91
2023/09/28 11:12:28;;;;;;;4.57;4.18;;;;;;;;;;5076272;28;20216;-91
2023/09/28 11:14:58;;;;;;;3.88;3.63;;;;;;;;;;5060397;28;20261;-91
2023/09/28 11:17:27;;;;;;;3.13;2.92;;;;;;;;;;5061056;28;20226;-91
2023/09/28 11:19:56;;;;;;;3.53;3.22;;;;;;;;;;5063832;28;20237;-91
2023/09/28 11:22:23;;;;;;;3.13;2.92;;;;;;;;;;5060531;28;20218;-91
2023/09/28 11:24:51;;;;;;;4.38;2.97;;;;;;;;;;5061463;28;20229;-92
2023/09/28 11:27:18;;;;;;;4.05;3.65;;;;;;;;;;5059940;28;20718;-92
2023/09/28 11:29:47;;;;;;;3.53;3.33;;;;;;;;;;5062973;28;20301;-92
2023/09/28 11:32:15;;;;;;;3.95;3.55;;;;;;;;;;5063636;28;20194;-92
2023/09/28 11:34:44;;;;;;;5.60;3.67;;;;;;;;;;5062526;28;20205;-92
2023/09/28 11:37:12;;;;;;;3.38;3.17;;;;;;;;;;5064431;28;20710;-90
2023/09/28 11:39:40;;;;;;;3.80;3.50;;;;;;;;;;5062208;28;20297;-90
2023/09/28 11:42:09;;;;;;;3.47;3.20;;;;;;;;;;5063166;28;20312;-92
2023/09/28 11:44:37;;;;;;;4.03;3.70;;;;;;;;;;5067703;28;20218;-92
2023/09/28 11:47:07;;;;;;;3.90;3.60;;;;;;;;;;5062860;28;20214;-92
2023/09/28 11:49:37;;;;;;;2.97;2.78;;;;;;;;;;5067064;28;20218;-91
2023/09/28 11:52:06;;;;;;;3.72;3.42;;;;;;;;;;5063856;28;20208;-92
2023/09/28 11:54:34;;;;;;;3.30;3.10;;;;;;;;;;5064140;28;20217;-90
2023/09/28 11:57:03;;;;;;;3.38;3.10;;;;;;;;;;5064451;28;20197;-92
2023/09/28 11:59:31;;;;;;;3.38;3.08;;;;;;;;;;5066425;28;20234;-93
2023/09/28 12:01:58;;;;;;;3.33;3.13;;;;;;;;;;5066905;28;20205;-92
2023/09/28 12:04:27;;;;;;;3.30;3.08;;;;;;;;;;5066906;28;20222;-93
2023/09/28 12:06:54;;;;;;;3.80;3.50;;;;;;;;;;5061854;28;20210;-91
2023/09/28 12:09:23;;;;;;;3.50;3.20;;;;;;;;;;5062005;28;20293;-91
2023/09/28 12:11:53;;;;;;;2.83;2.63;;;;;;;;;;5065215;28;20217;-93
2023/09/28 12:14:21;;;;;;;3.13;2.92;;;;;;;;;;5062162;28;20197;-92
2023/09/28 12:16:48;;;;;;;3.15;2.95;;;;;;;;;;5061512;28;20193;-92
2023/09/28 12:19:16;;;;;;;2.60;2.40;;;;;;;;;;5062980;28;20245;-92
2023/09/28 12:21:45;;;;;;;3.50;3.20;;;;;;;;;;5063489;28;20285;-92
2023/09/28 12:24:12;;;;;;;2.92;2.75;;;;;;;;;;5062809;28;20271;-92
2023/09/28 12:26:41;;;;;;;2.70;2.50;;;;;;;;;;5063027;28;20209;-92
2023/09/28 12:29:09;;;;;;;2.90;2.70;;;;;;;;;;5065040;28;20245;-93
2023/09/28 12:31:37;;;;;;;2.72;2.47;;;;;;;;;;5064086;28;20198;-92
2023/09/28 12:34:05;;;;;;;2.90;2.58;;;;;;;;;;5063671;28;20220;-92
2023/09/28 12:36:32;;;;;;;2.55;2.35;;;;;;;;;;5062546;28;20737;-92
2023/09/28 12:39:00;;;;;;;2.60;2.35;;;;;;;;;;5066913;28;20293;-92
2023/09/28 12:41:27;;;;;;;2.13;2.00;;;;;;;;;;5062285;28;20213;-92
2023/09/28 12:43:56;;;;;;;2.75;2.55;;;;;;;;;;5062440;28;20202;-92
2023/09/28 12:46:26;;;;;;;3.28;2.45;;;;;;;;;;5059247;28;20285;-93
2023/09/28 12:48:55;;;;;;;2.65;2.45;;;;;;;;;;5060775;28;20237;-92
2023/09/28 12:51:23;;;;;;;3.10;2.90;;;;;;;;;;5062289;28;20206;-92
2023/09/28 12:53:51;;;;;;;2.95;2.75;;;;;;;;;;5069946;28;20221;-91
2023/09/28 12:56:18;;;;;;;2.95;2.65;;;;;;;;;;5061744;28;20210;-92
2023/09/28 12:58:46;;;;;;;2.20;2.10;;;;;;;;;;5063769;28;20325;-92
2023/09/28 13:01:15;;;;;;;2.67;2.45;;;;;;;;;;5063651;28;20269;-92
2023/09/28 13:03:43;;;;;;;1.95;1.85;;;;;;;;;;5062067;28;20509;-93
2023/09/28 13:06:10;;;;;;;2.85;2.65;;;;;;;;;;5061153;28;20198;-92
2023/09/28 13:08:38;;;;;;;2.75;2.55;;;;;;;;;;5060935;28;20265;-92
2023/09/28 13:11:06;;;;;;;2.72;2.50;;;;;;;;;;5061423;28;20288;-92
2023/09/28 13:13:37;;;;;;;1.95;1.85;;;;;;;;;;5062793;28;20209;-92
2023/09/28 13:16:05;;;;;;;1.90;1.80;;;;;;;;;;5062358;28;20539;-92
2023/09/28 13:18:34;;;;;;;1.80;1.70;;;;;;;;;;5063592;28;20193;-92
2023/09/28 13:21:02;;;;;;;2.05;1.95;;;;;;;;;;5063413;28;20271;-92
2023/09/28 13:23:30;;;;;;;2.70;2.50;;;;;;;;;;5061650;28;20208;-92
2023/09/28 13:25:58;;;;;;;2.33;2.17;;;;;;;;;;5060586;28;20197;-92
2023/09/28 13:28:25;;;;;;;2.67;2.47;;;;;;;;;;5062900;28;20231;-93
2023/09/28 13:30:53;;;;;;;3.58;2.70;;;;;;;;;;5061162;28;20269;-91
2023/09/28 13:33:21;;;;;;;2.60;2.40;;;;;;;;;;5061280;28;20659;-92
2023/09/28 13:35:51;;;;;;;2.42;2.33;;;;;;;;;;5061918;28;20198;-93
2023/09/28 13:38:18;;;;;;;2.78;2.58;;;;;;;;;;5060522;28;20271;-93
2023/09/28 13:40:46;;;;;;;3.10;2.90;;;;;;;;;;5060444;28;20256;-92
2023/09/28 13:43:13;;;;;;;2.55;2.35;;;;;;;;;;5060895;28;20205;-92
2023/09/28 13:45:42;;;;;;;3.08;2.40;;;;;;;;;;5060962;28;20193;-93
2023/09/28 13:48:09;;;;;;;3.33;3.03;;;;;;;;;;5060949;28;20193;-92
2023/09/28 13:50:37;;;;;;;3.60;3.30;;;;;;;;;;5060510;28;20313;-92
2023/09/28 13:53:07;;;;;;;3.20;2.95;;;;;;;;;;5061378;28;20719;-92
2023/09/28 13:55:34;;;;;;;3.20;2.67;;;;;;;;;;5061712;28;20201;-92
2023/09/28 13:58:02;;;;;;;4.28;2.70;;;;;;;;;;5060879;28;20239;-92
2023/09/28 14:00:33;;;;;;;1.80;1.70;;;;;;;;;;5061631;28;20226;-93
2023/09/28 14:03:01;;;;;;;3.00;2.80;;;;;;;;;;5060981;28;20205;-92
2023/09/28 14:05:29;;;;;;;2.20;2.10;;;;;;;;;;5060660;28;20221;-92
2023/09/28 14:07:57;;;;;;;2.65;2.45;;;;;;;;;;5060165;28;20648;-92
2023/09/28 14:10:26;;;;;;;2.55;2.35;;;;;;;;;;5058634;28;20256;-92
2023/09/28 14:12:54;;;;;;;2.58;2.38;;;;;;;;;;5063972;28;20209;-92
2023/09/28 14:15:22;;;;;;;2.55;2.40;;;;;;;;;;5065154;28;20208;-93
2023/09/28 14:17:49;;;;;;;2.50;2.30;;;;;;;;;;5062256;28;20218;-92
2023/09/28 14:20:17;;;;;;;2.72;2.53;;;;;;;;;;5065236;28;20341;-92
2023/09/28 14:22:47;;;;;;;2.53;2.33;;;;;;;;;;5068996;28;20225;-92
2023/09/28 14:25:15;;;;;;;2.55;2.35;;;;;;;;;;5068583;28;20200;-91
2023/09/28 14:27:46;;;;;;;2.97;2.78;;;;;;;;;;5068888;28;20275;-92
2023/09/28 14:30:15;;;;;;;2.55;2.38;;;;;;;;;;5069352;28;20235;-91
2023/09/28 14:32:43;;;;;;;2.53;2.33;;;;;;;;;;5066418;28;20216;-92
2023/09/28 14:35:12;;;;;;;2.75;2.47;;;;;;;;;;5066967;28;20205;-91
2023/09/28 14:37:40;;;;;;;2.17;2.08;;;;;;;;;;5065253;28;20225;-91
2023/09/28 14:40:12;;;;;;;3.30;2.35;;;;;;;;;;5060711;28;20320;-92
2023/09/28 14:42:43;;;;;;;2.75;2.60;;;;;;;;;;5064312;28;20220;-92
2023/09/28 14:45:12;;;;;;;2.28;2.08;;;;;;;;;;5063706;28;20659;-92
2023/09/28 14:47:40;;;;;;;2.58;2.38;;;;;;;;;;5063848;28;20201;-91
2023/09/28 14:50:10;;;;;;;2.03;1.92;;;;;;;;;;5072756;28;20225;-93